Flight Track Log - Related Links

Times and Time Zones

All times are in EDT time to prevent confusion due to time zone crossing. See the SKW5428 flight status page for this flight to view local times or setup timezone preferences in your user account.

Time Position Orientation Groundspeed Altitude Reporting Facility
EDT Latitude Longitude Course Direction KTS MPH feet Rate Location/Type
Tue 12:47:15 PM 38.9296 -77.4874 148° Southeast  Level FlightAware Approximate
Tue 12:48:15 PM 38.8253 -77.5247 45° Northeast  Level FlightAware Approximate
Tue 12:48:46 PM 38.8833 -77.4500 180° South 193 222 2,100  Level Potomac TRACON
Tue 12:49:46 PM 38.8333 -77.4500 197° South 246 283 3,900 2,300 Climbing Potomac TRACON
Tue 12:50:46 PM 38.7500 -77.4833 218° Southwest 274 315 6,700 2,217 Climbing Potomac TRACON
Tue 12:53:09 PM 38.6169 -77.6164 219° Southwest 291 335 11,400 2,059 Climbing Washington Center
Tue 12:54:10 PM 38.5469 -77.6889 225° Southwest 313 360 13,700 2,182 Climbing Washington Center
Tue 12:55:10 PM 38.4808 -77.7719 236° Southwest 326 375 15,800 1,983 Climbing Washington Center
Tue 12:56:08 PM 38.4269 -77.8736 237° Southwest 337 388 17,600 1,881 Climbing Washington Center
Tue 12:57:08 PM 38.3725 -77.9806 236° Southwest 354 407 19,500 1,835 Climbing Washington Center
Tue 12:58:09 PM 38.3183 -78.0847 236° Southwest 359 413 21,300 1,623 Climbing Washington Center
Tue 12:59:10 PM 38.2619 -78.1911 236° Southwest 364 419 22,800 1,664 Climbing Washington Center
Tue 01:00:08 PM 38.1967 -78.3131 237° Southwest 380 437 24,600 1,966 Climbing Washington Center
Tue 01:01:09 PM 38.1400 -78.4219 242° Southwest 380 437 26,700 1,587 Climbing Washington Center
Tue 01:02:09 PM 38.1022 -78.5128 250° West 380 437 27,800 942 Climbing Washington Center
Tue 01:03:10 PM 38.0636 -78.6458 246° West 368 423 28,600 942 Climbing Washington Center
Tue 01:04:10 PM 38.0161 -78.7836 246° West 380 437 29,700 814 Climbing Washington Center
Tue 01:05:08 PM 37.9708 -78.9133 247° West 397 457 30,200 661 Climbing Washington Center
Tue 01:06:08 PM 37.9256 -79.0456 237° Southwest 402 463 31,000 836 Climbing Washington Center
Tue 01:07:10 PM 37.8681 -79.1561 228° Southwest 413 475 31,900 900 Climbing Washington Center
Tue 01:08:08 PM 37.7872 -79.2706 228° Southwest 425 489 32,800 915 Climbing Washington Center
Tue 01:09:08 PM 37.6936 -79.4000 226° Southwest 450 518 33,700 893 Climbing Washington Center
Tue 01:10:09 PM 37.6172 -79.5008 228° Southwest 458 527 34,600 942 Climbing Washington Center
Tue 01:11:09 PM 37.5275 -79.6272 226° Southwest 452 520 35,600 694 Climbing Washington Center
Tue 01:12:10 PM 37.4514 -79.7253 230° Southwest 447 514 36,000 496 Climbing Washington Center
Tue 01:13:10 PM 37.3719 -79.8439 227° Southwest 452 520 36,600 908 Climbing Washington Center
Tue 01:14:09 PM 37.2908 -79.9517 226° Southwest 446 513 37,800 706 Climbing Washington Center
Tue 01:15:09 PM 37.2011 -80.0689 227° Southwest 434 499 38,000 99 Climbing Washington Center
Tue 01:16:10 PM 37.1219 -80.1764 225° Southwest 434 499 38,000  Level Washington Center
Tue 01:16:52 PM 37.0592 -80.2544 228° Southwest 433 498 38,000  Level Atlanta Center
Tue 01:17:52 PM 36.9753 -80.3703 228° Southwest 440 506 38,000  Level Atlanta Center
Tue 01:18:53 PM 36.8931 -80.4831 226° Southwest 440 506 38,000  Level Atlanta Center
Tue 01:19:52 PM 36.8086 -80.5931 228° Southwest 440 506 38,000  Level Atlanta Center
Tue 01:20:52 PM 36.7283 -80.7028 227° Southwest 429 494 38,000  Level Atlanta Center
Tue 01:21:52 PM 36.6558 -80.7989 227° Southwest 429 494 38,000  Level Atlanta Center
Tue 01:22:52 PM 36.5731 -80.9108 227° Southwest 429 494 38,000  Level Atlanta Center
Tue 01:23:52 PM 36.4903 -81.0200 226° Southwest 434 499 38,000  Level Atlanta Center
Tue 01:24:52 PM 36.4033 -81.1317 227° Southwest 439 505 38,000  Level Atlanta Center
Tue 01:25:52 PM 36.3206 -81.2428 226° Southwest 439 505 38,000  Level Atlanta Center
Tue 01:26:52 PM 36.2353 -81.3539 226° Southwest 439 505 38,000  Level Atlanta Center
Tue 01:27:52 PM 36.1503 -81.4647 226° Southwest 438 504 38,000  Level Atlanta Center
Tue 01:28:52 PM 36.0647 -81.5753 227° Southwest 438 504 38,000  Level Atlanta Center
Tue 01:29:52 PM 35.9814 -81.6856 227° Southwest 438 504 38,000  Level Atlanta Center
Tue 01:30:52 PM 35.8900 -81.8061 225° Southwest 433 498 38,000  Level Atlanta Center
Tue 01:31:52 PM 35.8042 -81.9136 226° Southwest 433 498 38,000  Level Atlanta Center
Tue 01:32:52 PM 35.7183 -82.0233 226° Southwest 440 506 38,000 -350 Level Atlanta Center
Tue 01:33:52 PM 35.6325 -82.1328 225° Southwest 434 499 37,300 -1,000 Descending Atlanta Center
Tue 01:34:52 PM 35.5425 -82.2444 227° Southwest 449 517 36,000 -1,150 Descending Atlanta Center
Tue 01:35:52 PM 35.4564 -82.3561 226° Southwest 461 531 35,000 -650 Descending Atlanta Center
Tue 01:36:52 PM 35.3681 -82.4672 225° Southwest 461 531 34,700 -750 Descending Atlanta Center
Tue 01:37:52 PM 35.2839 -82.5708 224° Southwest 447 514 33,500 -800 Descending Atlanta Center
Tue 01:38:52 PM 35.2036 -82.6661 226° Southwest 423 487 33,100 -450 Descending Atlanta Center
Tue 01:39:52 PM 35.1233 -82.7667 226° Southwest 418 481 32,600 -500 Descending Atlanta Center
Tue 01:40:52 PM 35.0431 -82.8692 226° Southwest 418 481 32,100 -496 Descending Atlanta Center
Tue 01:41:53 PM 34.9625 -82.9692 225° Southwest 407 468 31,600 -496 Descending Atlanta Center
Tue 01:42:53 PM 34.8839 -83.0664 225° Southwest 412 474 31,100 -555 Descending Atlanta Center
Tue 01:43:52 PM 34.8053 -83.1608 225° Southwest 407 468 30,500 -1,050 Descending Atlanta Center
Tue 01:44:53 PM 34.7289 -83.2553 221° Southwest 400 460 29,000 -900 Descending Atlanta Center
Tue 01:45:52 PM 34.6564 -83.3317 166° South 378 435 28,700 -605 Descending Atlanta Center
Tue 01:46:52 PM 34.5683 -83.3047 89° East 308 354 27,800 -1,150 Descending Atlanta Center
Tue 01:47:52 PM 34.5697 -83.1961 46° Northeast 251 289 26,400 -1,400 Descending Atlanta Center
Tue 01:48:52 PM 34.6339 -83.1147 48° Northeast 244 281 25,000 -1,050 Descending Atlanta Center
Tue 01:49:52 PM 34.6958 -83.0308 47° Northeast 318 366 24,300 -650 Descending Atlanta Center
Tue 01:50:52 PM 34.7517 -82.9592 North 324 373 23,700 -700 Descending Atlanta Center
Tue 01:51:52 PM 34.8350 -82.9531 272° West 300 345 22,900 -800 Descending Atlanta Center
Tue 01:52:52 PM 34.8378 -83.0417 221° Southwest 179 206 22,100 -950 Descending Atlanta Center
Tue 01:53:52 PM 34.7614 -83.1236 221° Southwest 285 328 21,000 -650 Descending Atlanta Center
Tue 01:54:52 PM 34.6764 -83.2128 222° Southwest 356 410 20,800 -500 Descending Atlanta Center
Tue 01:55:52 PM 34.5914 -83.3069 221° Southwest 414 476 20,000 -774 Descending Atlanta Center
Tue 01:56:56 PM 34.4981 -83.4061 219° Southwest 414 476 19,200 -1,173 Descending Atlanta Center
Tue 01:58:05 PM 34.3983 -83.5050 223° Southwest 414 476 17,400 -1,781 Descending Atlanta Center
Tue 01:59:04 PM 34.3194 -83.5936 222° Southwest 409 471 15,400 -1,966 Descending Atlanta Center
Tue 02:00:04 PM 34.2319 -83.6894 222° Southwest 404 465 13,500 -1,700 Descending Atlanta Center
Tue 02:01:04 PM 34.1550 -83.7728 221° Southwest 387 445 12,000 -750 Descending Atlanta Center
Tue 02:02:04 PM 34.0925 -83.8381 221° Southwest 341 392 12,000 -313 Level Atlanta Center
Tue 02:02:40 PM 34.0500 -83.8833 220° Southwest 278 320 11,500 -1,000 Descending Atlanta TRACON
Tue 02:03:40 PM 34.0000 -83.9333 192° South 280 322 10,400 -750 Descending Atlanta TRACON
Tue 02:04:40 PM 33.9333 -83.9500 180° South 281 323 10,000 -684 Descending Atlanta TRACON
Tue 02:05:34 PM 33.8500 -83.9500 186° South 276 318 9,100 -714 Descending Atlanta TRACON
Tue 02:06:04 PM 33.8192 -83.9539 182° South 277 319 9,000 -1,067 Descending Atlanta Center
Tue 02:07:04 PM 33.7442 -83.9564 184° South 277 319 7,500 -1,000 Descending Atlanta Center
Tue 02:08:04 PM 33.6814 -83.9614 218° Southwest 265 305 7,000 -250 Descending Atlanta Center
Tue 02:09:04 PM 33.6356 -84.0039 269° West 213 245 7,000 -560 Level Atlanta Center
Tue 02:10:34 PM 33.6333 -84.1333 270° West 244 281 5,600 -1,080 Descending Atlanta TRACON
Tue 02:11:34 PM 33.6333 -84.2000 270° West 223 257 4,300 -1,158 Descending Atlanta TRACON
Tue 02:12:28 PM 33.6333 -84.2667 270° West 222 255 3,400 -1,000 Descending Atlanta TRACON

Login

Don't have an account? Register now (free) for customized features, flight alerts, and more!